createdAt,value
2022-11-25T00:01:27.276Z,60.30
2022-11-25T00:03:32.645Z,60.79
2022-11-25T00:05:34.827Z,60.72
2022-11-25T00:07:37.591Z,60.29
2022-11-25T00:09:39.789Z,60.89
2022-11-25T00:11:43.322Z,60.55
2022-11-25T00:13:46.913Z,60.21
2022-11-25T00:15:48.997Z,60.51
2022-11-25T00:17:51.698Z,60.82
2022-11-25T00:19:53.906Z,60.84
2022-11-25T00:21:56.058Z,61.15
2022-11-25T00:24:03.650Z,60.82
2022-11-25T00:26:11.283Z,60.71
2022-11-25T00:28:13.690Z,60.42
2022-11-25T00:30:15.733Z,60.55
2022-11-25T00:32:17.652Z,60.44
2022-11-25T00:34:19.810Z,60.94
2022-11-25T00:36:27.408Z,60.77
2022-11-25T00:38:30.039Z,61.09
2022-11-25T00:40:32.141Z,60.76
2022-11-25T00:42:53.001Z,60.60
2022-11-25T00:44:57.853Z,60.92
2022-11-25T00:46:59.896Z,60.75
2022-11-25T00:49:02.282Z,61.01
2022-11-25T00:51:04.604Z,60.57
2022-11-25T00:53:07.010Z,61.04
2022-11-25T00:55:09.290Z,60.71
2022-11-25T00:57:13.005Z,60.69
2022-11-25T00:59:15.032Z,60.83
2022-11-25T01:01:16.972Z,61.01
2022-11-25T01:03:18.912Z,61.05
2022-11-25T01:05:21.439Z,61.20
2022-11-25T01:07:23.771Z,61.46
2022-11-25T01:09:31.116Z,61.42
2022-11-25T01:11:33.698Z,61.42
2022-11-25T01:13:35.704Z,61.30
2022-11-25T01:15:38.254Z,61.36
2022-11-25T01:17:40.172Z,61.29
2022-11-25T01:19:42.078Z,61.24
2022-11-25T01:21:44.465Z,61.17
2022-11-25T01:23:48.721Z,61.10
2022-11-25T01:25:50.814Z,61.72
2022-11-25T01:27:53.540Z,61.07
2022-11-25T01:29:55.659Z,61.18
2022-11-25T01:31:57.912Z,61.18
2022-11-25T01:34:06.250Z,61.36
2022-11-25T01:36:10.931Z,61.04
2022-11-25T01:38:13.493Z,60.89
2022-11-25T01:40:15.926Z,61.00
2022-11-25T01:42:18.225Z,61.23
2022-11-25T01:44:28.009Z,61.18
2022-11-25T01:46:53.209Z,61.08
2022-11-25T01:49:00.600Z,61.23
2022-11-25T01:51:06.674Z,61.28
2022-11-25T01:53:12.301Z,61.60
2022-11-25T01:55:20.580Z,61.51
2022-11-25T01:57:28.400Z,61.02
2022-11-25T01:59:36.458Z,60.95
2022-11-25T02:01:41.356Z,60.88
2022-11-25T02:03:48.145Z,61.31
2022-11-25T02:06:06.731Z,61.03
2022-11-25T02:08:09.956Z,61.01
2022-11-25T02:10:18.271Z,61.39
2022-11-25T02:12:21.095Z,61.16
2022-11-25T02:14:25.570Z,60.99
2022-11-25T02:16:27.675Z,61.55
2022-11-25T02:18:30.418Z,61.42
2022-11-25T02:20:34.547Z,61.11
2022-11-25T02:22:51.247Z,61.36
2022-11-25T02:25:02.454Z,61.29
2022-11-25T02:27:04.554Z,61.22
2022-11-25T02:29:06.602Z,61.54
2022-11-25T02:31:08.931Z,61.54
2022-11-25T02:33:12.210Z,61.26
2022-11-25T02:35:31.130Z,61.60
2022-11-25T02:37:33.577Z,61.54
2022-11-25T02:39:35.874Z,61.38
2022-11-25T02:41:42.805Z,61.48
2022-11-25T02:43:45.512Z,61.49
2022-11-25T02:45:58.522Z,61.97
2022-11-25T02:48:01.112Z,61.93
2022-11-25T02:50:04.035Z,62.09
2022-11-25T02:52:06.283Z,61.94
2022-11-25T02:54:08.238Z,62.11
2022-11-25T02:56:11.856Z,61.87
2022-11-25T02:58:15.203Z,61.87
2022-11-25T03:00:17.995Z,62.07
2022-11-25T03:02:20.148Z,61.96
2022-11-25T03:04:22.377Z,61.32
2022-11-25T03:06:24.730Z,61.53
2022-11-25T03:08:30.606Z,61.20
2022-11-25T03:10:33.774Z,61.30
2022-11-25T03:12:35.984Z,61.35
2022-11-25T03:14:38.347Z,61.55
2022-11-25T03:16:40.595Z,61.48
2022-11-25T03:18:42.760Z,61.47
2022-11-25T03:20:45.283Z,61.29
2022-11-25T03:22:50.133Z,61.38
2022-11-25T03:24:53.626Z,61.47
2022-11-25T03:26:56.893Z,61.52
2022-11-25T03:28:59.145Z,61.35
2022-11-25T03:31:02.329Z,61.53
2022-11-25T03:33:08.001Z,61.56
2022-11-25T03:35:11.228Z,61.29
2022-11-25T03:37:16.350Z,61.55
2022-11-25T03:39:18.575Z,61.35
2022-11-25T03:41:20.797Z,61.48
2022-11-25T03:43:22.931Z,61.64
2022-11-25T03:45:25.357Z,61.46
2022-11-25T03:47:31.341Z,61.47
2022-11-25T03:49:33.557Z,61.38
2022-11-25T03:51:36.086Z,61.30
2022-11-25T03:53:38.493Z,61.05
2022-11-25T03:55:43.309Z,61.01
2022-11-25T03:57:45.536Z,61.29
2022-11-25T03:59:48.033Z,61.29
2022-11-25T04:01:50.235Z,60.74
2022-11-25T04:03:52.368Z,61.03
2022-11-25T04:05:54.766Z,61.28
2022-11-25T04:07:58.333Z,61.70
2022-11-25T04:10:01.398Z,61.58
2022-11-25T04:12:25.454Z,61.86
2022-11-25T04:14:32.516Z,61.37
2022-11-25T04:16:38.068Z,61.58
2022-11-25T04:18:40.282Z,61.53
2022-11-25T04:20:43.695Z,61.56
2022-11-25T04:22:47.226Z,61.72
2022-11-25T04:24:49.828Z,61.52
2022-11-25T04:26:59.270Z,61.68
2022-11-25T04:29:01.526Z,61.54
2022-11-25T04:31:07.812Z,61.55
2022-11-25T04:33:12.501Z,61.60
2022-11-25T04:35:15.446Z,61.60
2022-11-25T04:37:21.870Z,61.50
2022-11-25T04:39:24.108Z,61.56
2022-11-25T04:41:30.139Z,61.63
2022-11-25T04:43:33.142Z,61.70
2022-11-25T04:48:04.643Z,61.51
2022-11-25T04:50:10.637Z,61.35
2022-11-25T04:52:21.432Z,61.78
2022-11-25T04:54:23.692Z,61.60
2022-11-25T04:56:26.297Z,61.75
2022-11-25T04:58:49.592Z,61.62
2022-11-25T05:00:51.498Z,61.66
2022-11-25T05:02:54.868Z,61.88
2022-11-25T05:04:58.540Z,61.91
2022-11-25T05:07:01.035Z,61.64
2022-11-25T05:09:05.026Z,61.98
2022-11-25T05:11:10.077Z,61.54
2022-11-25T05:13:13.400Z,62.05
2022-11-25T05:15:15.848Z,61.77
2022-11-25T05:17:23.611Z,61.56
2022-11-25T05:19:25.819Z,61.46
2022-11-25T05:21:27.994Z,61.91
2022-11-25T05:23:30.965Z,62.07
2022-11-25T05:25:33.932Z,62.05
2022-11-25T05:27:55.448Z,61.37
2022-11-25T05:29:57.626Z,61.84
2022-11-25T05:32:00.490Z,61.50
2022-11-25T05:34:03.901Z,61.81
2022-11-25T05:36:06.488Z,62.05
2022-11-25T05:38:17.553Z,61.89
2022-11-25T05:40:19.722Z,61.77
2022-11-25T05:42:42.086Z,61.77
2022-11-25T05:44:44.005Z,61.73
2022-11-25T05:46:52.224Z,61.61
2022-11-25T05:48:56.099Z,61.70
2022-11-25T05:51:03.153Z,61.28
2022-11-25T05:53:06.401Z,61.20
2022-11-25T05:55:10.581Z,61.18
2022-11-25T05:57:12.651Z,60.66
2022-11-25T05:59:19.391Z,60.51
2022-11-25T06:01:34.434Z,60.55
2022-11-25T06:03:37.461Z,60.52
2022-11-25T06:05:41.340Z,60.81
2022-11-25T06:07:43.936Z,60.00
2022-11-25T06:09:46.609Z,60.09
2022-11-25T06:11:48.875Z,59.66
2022-11-25T06:13:51.427Z,60.12
2022-11-25T06:15:53.718Z,60.16
2022-11-25T06:17:56.189Z,60.14
2022-11-25T06:20:00.616Z,60.08
2022-11-25T06:22:02.564Z,60.11
2022-11-25T06:24:05.213Z,59.61
2022-11-25T06:26:10.870Z,59.37
2022-11-25T06:28:13.599Z,59.19
2022-11-25T06:30:24.902Z,58.75
2022-11-25T06:32:41.473Z,59.42
2022-11-25T06:35:04.347Z,59.12
2022-11-25T06:37:28.685Z,58.84
2022-11-25T06:39:30.817Z,58.79
2022-11-25T06:41:32.812Z,59.12
2022-11-25T06:43:35.168Z,58.92
2022-11-25T06:45:37.293Z,58.98
2022-11-25T06:47:39.411Z,58.96
2022-11-25T06:49:41.377Z,59.21
2022-11-25T06:51:43.679Z,58.91
2022-11-25T06:53:46.082Z,58.82
2022-11-25T06:55:48.170Z,58.80
2022-11-25T06:57:51.358Z,59.16
2022-11-25T06:59:58.483Z,58.67
2022-11-25T07:02:00.875Z,58.42
2022-11-25T07:04:05.897Z,58.34
2022-11-25T07:06:08.214Z,58.37
2022-11-25T07:08:10.224Z,58.75
2022-11-25T07:10:12.381Z,58.72
2022-11-25T07:12:14.769Z,58.51
2022-11-25T07:14:17.404Z,58.67
2022-11-25T07:16:19.863Z,58.10
2022-11-25T07:18:22.818Z,58.72
2022-11-25T07:20:28.038Z,58.61
2022-11-25T07:22:30.467Z,58.25
2022-11-25T07:24:33.973Z,58.21
2022-11-25T07:26:38.810Z,58.01
2022-11-25T07:28:41.137Z,58.00
2022-11-25T07:33:08.204Z,57.81
2022-11-25T07:35:10.542Z,57.33
2022-11-25T07:37:37.340Z,56.27
2022-11-25T07:39:41.959Z,56.35
2022-11-25T07:41:44.592Z,56.94
2022-11-25T07:43:48.699Z,55.91
2022-11-25T07:45:54.459Z,56.27
2022-11-25T07:47:56.558Z,56.06
2022-11-25T07:49:58.444Z,56.67
2022-11-25T07:52:00.772Z,56.54
2022-11-25T07:54:05.036Z,56.99
2022-11-25T07:56:07.220Z,56.27
2022-11-25T07:58:09.321Z,56.53
2022-11-25T08:00:11.881Z,56.58
2022-11-25T08:02:13.845Z,56.01
2022-11-25T08:04:20.078Z,56.30
2022-11-25T08:06:25.151Z,56.32
2022-11-25T08:08:28.301Z,55.76
2022-11-25T08:10:30.311Z,56.26
2022-11-25T08:12:33.064Z,56.31
2022-11-25T08:14:35.509Z,56.13
2022-11-25T08:16:38.341Z,56.14
2022-11-25T08:18:40.950Z,55.95
2022-11-25T08:20:42.948Z,55.92
2022-11-25T08:22:44.967Z,55.92
2022-11-25T08:24:46.932Z,55.58
2022-11-25T08:26:49.608Z,55.63
2022-11-25T08:28:52.830Z,54.42
2022-11-25T08:31:02.698Z,53.95
2022-11-25T08:33:07.398Z,54.76
2022-11-25T08:35:09.571Z,54.66
2022-11-25T08:37:11.588Z,54.99
2022-11-25T08:39:36.403Z,54.11
2022-11-25T08:41:37.219Z,53.02
2022-11-25T08:43:40.088Z,53.74
2022-11-25T08:45:42.163Z,53.72
2022-11-25T08:47:44.321Z,53.53
2022-11-25T08:49:46.853Z,54.18
2022-11-25T08:51:49.215Z,53.82
2022-11-25T08:53:56.709Z,53.07
2022-11-25T08:55:58.852Z,53.85
2022-11-25T08:58:00.739Z,53.78
2022-11-25T09:00:04.224Z,54.12
2022-11-25T09:02:08.358Z,53.58
2022-11-25T09:04:10.290Z,52.83
2022-11-25T09:06:12.968Z,52.32
2022-11-25T09:08:18.035Z,52.44
2022-11-25T09:10:20.020Z,52.90
2022-11-25T09:12:22.165Z,52.52
2022-11-25T09:14:24.191Z,53.28
2022-11-25T09:16:27.036Z,52.82
2022-11-25T09:18:30.460Z,53.13
2022-11-25T09:20:33.370Z,53.16
2022-11-25T09:22:35.129Z,53.06
2022-11-25T09:24:37.531Z,53.06
2022-11-25T09:26:39.904Z,52.19
2022-11-25T09:28:42.076Z,53.01
2022-11-25T09:30:44.187Z,52.12
2022-11-25T09:32:49.383Z,51.46
2022-11-25T09:34:51.332Z,52.14
2022-11-25T09:36:53.609Z,51.93
2022-11-25T09:38:55.987Z,52.38
2022-11-25T09:41:40.159Z,51.29
2022-11-25T09:44:18.107Z,50.78
2022-11-25T09:46:44.206Z,50.52
2022-11-25T09:48:51.798Z,51.19
2022-11-25T09:51:13.997Z,50.24
2022-11-25T09:53:21.973Z,51.66
2022-11-25T09:55:26.143Z,52.29
2022-11-25T09:57:52.819Z,51.83
2022-11-25T10:00:11.441Z,51.25
2022-11-25T10:02:50.924Z,50.18
2022-11-25T10:05:03.155Z,49.71
2022-11-25T10:07:13.940Z,50.92
2022-11-25T10:09:20.883Z,50.79
2022-11-25T10:11:35.159Z,51.32
2022-11-25T10:14:01.504Z,50.74
2022-11-25T10:16:08.474Z,51.06
2022-11-25T10:18:41.665Z,50.57
2022-11-25T10:20:44.152Z,50.39
2022-11-25T10:22:49.361Z,50.65
2022-11-25T10:24:54.186Z,50.52
2022-11-25T10:27:06.144Z,49.73
2022-11-25T10:29:14.221Z,48.76
2022-11-25T10:31:36.264Z,50.29
2022-11-25T10:33:45.095Z,49.15
2022-11-25T10:36:15.852Z,47.63
2022-11-25T10:38:36.592Z,47.14
2022-11-25T10:40:38.531Z,48.98
2022-11-25T10:42:40.482Z,48.42
2022-11-25T10:44:42.880Z,48.98
2022-11-25T10:47:13.579Z,48.11
2022-11-25T10:50:01.105Z,49.34
2022-11-25T10:52:11.645Z,48.93
2022-11-25T10:54:27.675Z,48.65
2022-11-25T10:56:30.347Z,48.70
2022-11-25T10:58:37.809Z,48.60
2022-11-25T11:00:39.740Z,49.32
2022-11-25T11:02:48.462Z,49.84
2022-11-25T11:04:57.679Z,49.58
2022-11-25T11:07:08.477Z,49.41
2022-11-25T11:09:38.869Z,47.71
2022-11-25T11:11:49.141Z,48.26
2022-11-25T11:13:59.862Z,48.83
2022-11-25T11:16:02.190Z,48.79
2022-11-25T11:18:30.509Z,47.76
2022-11-25T11:20:32.833Z,48.68
2022-11-25T11:22:46.506Z,47.99
2022-11-25T11:24:48.489Z,48.12
2022-11-25T11:27:03.684Z,48.39
2022-11-25T11:29:16.872Z,47.68
2022-11-25T11:31:29.224Z,49.09
2022-11-25T11:34:05.869Z,47.84
2022-11-25T11:36:15.466Z,48.44
2022-11-25T11:38:17.630Z,49.25
2022-11-25T11:40:35.573Z,48.93
2022-11-25T11:43:04.755Z,47.89
2022-11-25T11:45:26.332Z,47.57
2022-11-25T11:47:28.361Z,49.07
2022-11-25T11:49:34.823Z,48.54
2022-11-25T11:52:10.661Z,47.73
2022-11-25T11:54:34.760Z,47.41
2022-11-25T11:56:43.071Z,48.07
2022-11-25T11:59:06.068Z,46.73
2022-11-25T12:01:11.085Z,47.54
2022-11-25T12:03:22.166Z,48.25
2022-11-25T12:05:29.756Z,48.05
2022-11-25T12:07:46.920Z,47.36
2022-11-25T12:09:59.621Z,48.22
2022-11-25T12:12:07.099Z,48.94
2022-11-25T12:14:23.715Z,48.23
2022-11-25T12:16:48.846Z,46.79
2022-11-25T12:19:02.300Z,48.07
2022-11-25T12:21:08.759Z,47.44
2022-11-25T12:23:23.723Z,45.42
2022-11-25T12:25:38.153Z,45.42
2022-11-25T12:27:50.925Z,46.22
2022-11-25T12:30:06.223Z,47.39
2022-11-25T12:32:22.096Z,46.09
2022-11-25T12:34:36.943Z,46.15
2022-11-25T12:36:45.126Z,46.25
2022-11-25T12:39:12.367Z,45.38
2022-11-25T12:41:27.403Z,45.75
2022-11-25T12:43:34.565Z,46.51
2022-11-25T12:45:36.782Z,47.41
2022-11-25T12:47:39.484Z,47.44
2022-11-25T12:49:47.371Z,46.78
2022-11-25T12:52:19.622Z,46.34
2022-11-25T12:55:05.920Z,46.06
2022-11-25T12:57:08.359Z,47.41
2022-11-25T12:59:38.570Z,46.49
2022-11-25T13:01:49.793Z,47.46
2022-11-25T13:04:29.299Z,47.24
2022-11-25T13:06:38.920Z,47.31
2022-11-25T13:08:52.719Z,47.98
2022-11-25T13:11:23.129Z,47.61
2022-11-25T13:13:36.970Z,47.49
2022-11-25T13:15:44.683Z,46.38
2022-11-25T13:17:49.114Z,47.10
2022-11-25T13:20:29.153Z,45.79
2022-11-25T13:22:31.264Z,47.04
2022-11-25T13:24:39.507Z,47.38
2022-11-25T13:26:47.791Z,47.66
2022-11-25T13:28:51.774Z,48.17
2022-11-25T13:30:54.249Z,47.85
2022-11-25T13:32:56.486Z,48.01
2022-11-25T13:35:21.451Z,47.09
2022-11-25T13:37:40.782Z,47.73
2022-11-25T13:39:42.873Z,48.23
2022-11-25T13:41:50.313Z,48.02
2022-11-25T13:44:16.674Z,47.57
2022-11-25T13:46:37.824Z,47.66
2022-11-25T13:48:44.907Z,47.45
2022-11-25T13:51:09.893Z,47.88
2022-11-25T13:53:21.996Z,47.90
2022-11-25T13:55:33.153Z,48.08
2022-11-25T13:57:38.729Z,48.56
2022-11-25T13:59:43.591Z,48.51
2022-11-25T14:01:45.707Z,48.95
2022-11-25T14:03:52.143Z,48.62
2022-11-25T14:06:01.623Z,48.65
2022-11-25T14:08:28.087Z,48.65
2022-11-25T14:10:46.203Z,48.70
2022-11-25T14:12:50.246Z,48.96
2022-11-25T14:14:57.731Z,48.82
2022-11-25T14:17:31.033Z,48.59
2022-11-25T14:19:52.653Z,48.87
2022-11-25T14:22:06.981Z,49.12
2022-11-25T14:24:21.163Z,49.23
2022-11-25T14:26:48.662Z,49.03
2022-11-25T14:29:00.765Z,48.96
2022-11-25T14:31:11.386Z,49.14
2022-11-25T14:33:17.423Z,49.51
2022-11-25T14:35:30.702Z,49.71
2022-11-25T14:37:43.062Z,49.84
2022-11-25T14:40:10.918Z,49.29
2022-11-25T14:42:17.911Z,49.61
2022-11-25T14:44:27.223Z,49.35
2022-11-25T14:46:29.626Z,49.78
2022-11-25T14:48:31.678Z,49.71
2022-11-25T14:50:35.095Z,49.71
2022-11-25T14:52:37.609Z,49.72
2022-11-25T14:54:44.757Z,49.80
2022-11-25T14:56:47.521Z,49.62
2022-11-25T14:58:53.226Z,49.57
2022-11-25T15:00:58.144Z,50.05
2022-11-25T15:03:02.799Z,49.71
2022-11-25T15:05:10.876Z,49.50
2022-11-25T15:07:20.027Z,49.28
2022-11-25T15:09:31.056Z,50.11
2022-11-25T15:11:35.280Z,49.73
2022-11-25T15:13:48.020Z,49.56
2022-11-25T15:15:51.523Z,49.73
2022-11-25T15:17:55.463Z,50.03
2022-11-25T15:20:01.597Z,50.08
2022-11-25T15:22:24.043Z,50.07
2022-11-25T15:24:31.902Z,49.85
2022-11-25T15:26:35.675Z,50.04
2022-11-25T15:28:40.334Z,50.11
2022-11-25T15:30:42.473Z,50.04
2022-11-25T15:32:44.929Z,49.96
2022-11-25T15:34:48.823Z,50.07
2022-11-25T15:36:54.886Z,50.27
2022-11-25T15:39:19.880Z,50.38
2022-11-25T15:41:34.297Z,50.03
2022-11-25T15:43:41.456Z,50.23
2022-11-25T15:45:46.347Z,50.11
2022-11-25T15:47:49.150Z,50.46
2022-11-25T15:50:06.032Z,50.40
2022-11-25T15:52:17.635Z,50.19
2022-11-25T15:54:24.928Z,50.62
2022-11-25T15:56:28.034Z,50.35
2022-11-25T15:58:30.597Z,50.45
2022-11-25T16:00:32.628Z,50.27
2022-11-25T16:02:43.822Z,50.47
2022-11-25T16:04:46.179Z,50.55
2022-11-25T16:07:00.163Z,50.14
2022-11-25T16:09:04.328Z,50.37
2022-11-25T16:11:15.679Z,50.45
2022-11-25T16:13:23.861Z,50.45
2022-11-25T16:16:02.099Z,50.70
2022-11-25T16:18:24.935Z,50.80
2022-11-25T16:20:26.704Z,50.86
2022-11-25T16:22:30.279Z,50.67
2022-11-25T16:24:49.112Z,50.73
2022-11-25T16:27:00.972Z,50.98
2022-11-25T16:29:15.737Z,51.28
2022-11-25T16:31:18.561Z,51.24
2022-11-25T16:33:20.872Z,51.21
2022-11-25T16:35:22.949Z,51.50
2022-11-25T16:37:28.041Z,51.59
2022-11-25T16:39:30.585Z,51.66
2022-11-25T16:41:32.602Z,51.81
2022-11-25T16:43:34.713Z,51.38
2022-11-25T16:45:37.076Z,51.83
2022-11-25T16:47:39.255Z,51.69
2022-11-25T16:49:44.033Z,51.86
2022-11-25T16:51:46.495Z,51.67
2022-11-25T16:53:48.805Z,51.67
2022-11-25T16:55:51.159Z,51.72
2022-11-25T16:57:56.214Z,51.61
2022-11-25T17:00:01.104Z,51.98
2022-11-25T17:02:05.860Z,52.02
2022-11-25T17:04:11.912Z,51.84
2022-11-25T17:06:22.156Z,51.69
2022-11-25T17:08:24.606Z,51.60
2022-11-25T17:10:31.561Z,52.39
2022-11-25T17:12:35.146Z,51.74
2022-11-25T17:14:38.529Z,52.08
2022-11-25T17:16:42.995Z,52.37
2022-11-25T17:18:45.176Z,52.26
2022-11-25T17:20:47.316Z,52.10
2022-11-25T17:22:49.703Z,52.04
2022-11-25T17:24:51.933Z,52.46
2022-11-25T17:27:05.349Z,52.58
2022-11-25T17:29:13.006Z,52.57
2022-11-25T17:31:15.147Z,52.53
2022-11-25T17:33:20.391Z,52.57
2022-11-25T17:35:22.461Z,52.57
2022-11-25T17:37:25.993Z,52.45
2022-11-25T17:39:28.021Z,52.20
2022-11-25T17:41:31.001Z,52.51
2022-11-25T17:43:39.749Z,52.64
2022-11-25T17:45:42.386Z,52.76
2022-11-25T17:47:45.061Z,52.64
2022-11-25T17:49:47.117Z,52.82
2022-11-25T17:51:49.614Z,52.31
2022-11-25T17:53:52.964Z,52.30
2022-11-25T17:55:55.285Z,52.47
2022-11-25T17:57:57.470Z,52.67
2022-11-25T17:59:59.719Z,52.95
2022-11-25T18:02:02.054Z,52.53
2022-11-25T18:04:24.951Z,53.03
2022-11-25T18:06:26.843Z,52.82
2022-11-25T18:08:29.670Z,52.70
2022-11-25T18:10:32.062Z,52.80
2022-11-25T18:12:36.825Z,53.28
2022-11-25T18:14:40.896Z,53.49
2022-11-25T18:16:43.035Z,53.49
2022-11-25T18:18:45.158Z,53.19
2022-11-25T18:20:47.267Z,53.54
2022-11-25T18:22:51.047Z,53.41
2022-11-25T18:24:54.074Z,53.34
2022-11-25T18:26:57.788Z,53.59
2022-11-25T18:29:02.112Z,53.43
2022-11-25T18:31:06.057Z,53.61
2022-11-25T18:33:16.137Z,53.46
2022-11-25T18:35:24.427Z,54.16
2022-11-25T18:37:26.694Z,53.51
2022-11-25T18:39:28.837Z,53.82
2022-11-25T18:41:31.028Z,53.95
2022-11-25T18:43:35.034Z,53.82
2022-11-25T18:45:38.816Z,53.95
2022-11-25T18:47:41.393Z,53.83
2022-11-25T18:49:43.706Z,53.62
2022-11-25T18:51:46.011Z,53.48
2022-11-25T18:53:47.980Z,53.67
2022-11-25T18:55:50.376Z,53.78
2022-11-25T18:57:52.896Z,53.80
2022-11-25T19:00:17.215Z,53.76
2022-11-25T19:02:18.788Z,53.90
2022-11-25T19:04:20.969Z,53.41
2022-11-25T19:06:23.522Z,53.69
2022-11-25T19:08:25.636Z,53.72
2022-11-25T19:10:31.439Z,53.80
2022-11-25T19:12:33.611Z,53.85
2022-11-25T19:14:39.568Z,54.03
2022-11-25T19:16:42.836Z,53.85
2022-11-25T19:18:46.917Z,54.42
2022-11-25T19:20:48.776Z,53.85
2022-11-25T19:22:50.631Z,54.73
2022-11-25T19:24:52.475Z,54.92
2022-11-25T19:26:56.729Z,54.91
2022-11-25T19:29:04.502Z,55.26
2022-11-25T19:31:06.805Z,55.31
2022-11-25T19:33:16.479Z,55.64
2022-11-25T19:35:25.256Z,55.41
2022-11-25T19:37:30.213Z,55.48
2022-11-25T19:39:36.411Z,55.23
2022-11-25T19:41:38.377Z,55.09
2022-11-25T19:43:40.105Z,55.53
2022-11-25T19:45:43.239Z,55.66
2022-11-25T19:47:51.348Z,55.60
2022-11-25T19:49:58.567Z,55.41
2022-11-25T19:52:02.072Z,55.06
2022-11-25T19:54:04.427Z,54.83
2022-11-25T19:56:07.372Z,54.63
2022-11-25T19:58:09.388Z,54.65
2022-11-25T20:00:13.471Z,54.74
2022-11-25T20:02:22.010Z,55.71
2022-11-25T20:04:24.226Z,55.10
2022-11-25T20:06:30.835Z,55.29
2022-11-25T20:08:32.961Z,55.02
2022-11-25T20:10:35.063Z,54.91
2022-11-25T20:12:37.108Z,55.12
2022-11-25T20:14:39.308Z,55.12
2022-11-25T20:16:44.706Z,55.21
2022-11-25T20:18:47.619Z,55.59
2022-11-25T20:21:52.799Z,55.56
2022-11-25T20:23:55.229Z,55.03
2022-11-25T20:25:57.266Z,55.55
2022-11-25T20:27:59.256Z,55.45
2022-11-25T20:30:01.837Z,55.76
2022-11-25T20:32:22.709Z,56.01
2022-11-25T20:34:24.890Z,56.17
2022-11-25T20:36:32.167Z,56.41
2022-11-25T20:38:36.334Z,56.35
2022-11-25T20:40:42.004Z,56.66
2022-11-25T20:42:44.008Z,56.83
2022-11-25T20:44:45.886Z,56.52
2022-11-25T20:46:48.294Z,56.34
2022-11-25T20:49:02.598Z,57.01
2022-11-25T20:51:13.026Z,56.27
2022-11-25T20:53:19.222Z,56.65
2022-11-25T20:55:25.052Z,57.26
2022-11-25T20:57:27.115Z,58.66
2022-11-25T20:59:29.262Z,57.89
2022-11-25T21:01:31.316Z,59.26
2022-11-25T21:03:33.391Z,58.69
2022-11-25T21:05:36.751Z,59.09
2022-11-25T21:07:39.391Z,59.04
2022-11-25T21:09:42.435Z,59.02
2022-11-25T21:11:44.500Z,58.94
2022-11-25T21:13:47.303Z,58.26
2022-11-25T21:15:49.567Z,58.00
2022-11-25T21:17:52.294Z,58.30
2022-11-25T21:19:54.287Z,58.41
2022-11-25T21:21:56.191Z,58.18
2022-11-25T21:24:02.465Z,58.50
2022-11-25T21:26:08.229Z,58.38
2022-11-25T21:28:22.241Z,58.27
2022-11-25T21:30:32.497Z,58.31
2022-11-25T21:32:34.644Z,58.31
2022-11-25T21:34:36.939Z,58.28
2022-11-25T21:36:40.573Z,58.20
2022-11-25T21:38:44.160Z,57.84
2022-11-25T21:40:50.212Z,58.23
2022-11-25T21:42:52.735Z,58.17
2022-11-25T21:44:55.569Z,58.67
2022-11-25T21:46:57.685Z,57.93
2022-11-25T21:48:59.850Z,57.48
2022-11-25T21:51:02.108Z,57.93
2022-11-25T21:53:07.116Z,57.88
2022-11-25T21:55:13.698Z,58.40
2022-11-25T21:57:21.995Z,58.16
2022-11-25T21:59:24.030Z,58.01
2022-11-25T22:01:26.199Z,58.26
2022-11-25T22:03:31.238Z,58.55
2022-11-25T22:05:33.458Z,58.51
2022-11-25T22:07:35.583Z,58.19
2022-11-25T22:09:37.838Z,58.82
2022-11-25T22:11:43.893Z,58.69
2022-11-25T22:13:49.146Z,58.92
2022-11-25T22:15:55.706Z,58.96
2022-11-25T22:17:58.463Z,58.70
2022-11-25T22:20:00.525Z,58.37
2022-11-25T22:22:03.013Z,58.73
2022-11-25T22:24:14.515Z,59.34
2022-11-25T22:26:23.708Z,58.71
2022-11-25T22:28:28.301Z,58.74
2022-11-25T22:30:30.543Z,58.32
2022-11-25T22:32:33.108Z,58.63
2022-11-25T22:34:35.345Z,58.51
2022-11-25T22:36:39.986Z,58.25
2022-11-25T22:38:42.354Z,58.46
2022-11-25T22:40:46.850Z,58.48
2022-11-25T22:42:51.567Z,58.50
2022-11-25T22:44:56.465Z,58.29
2022-11-25T22:46:59.087Z,58.24
2022-11-25T22:49:00.958Z,58.06
2022-11-25T22:51:04.222Z,57.73
2022-11-25T22:53:16.874Z,57.84
2022-11-25T22:55:21.593Z,58.17
2022-11-25T22:57:23.873Z,57.50
2022-11-25T22:59:26.012Z,58.02
2022-11-25T23:01:28.068Z,57.57
2022-11-25T23:03:30.390Z,57.61
2022-11-25T23:05:34.617Z,57.70
2022-11-25T23:07:36.687Z,57.68
2022-11-25T23:09:44.333Z,58.02
2022-11-25T23:11:49.769Z,57.80
2022-11-25T23:13:51.669Z,57.87
2022-11-25T23:15:59.612Z,57.70
2022-11-25T23:18:03.937Z,57.84
2022-11-25T23:20:15.798Z,58.17
2022-11-25T23:22:18.783Z,57.89
2022-11-25T23:24:20.866Z,58.22
2022-11-25T23:26:23.501Z,57.92
2022-11-25T23:28:25.783Z,58.07
2022-11-25T23:30:28.276Z,57.88
2022-11-25T23:32:30.422Z,57.67
2022-11-25T23:34:33.273Z,57.90
2022-11-25T23:36:47.440Z,58.32
2022-11-25T23:38:58.065Z,58.10
2022-11-25T23:41:00.193Z,57.85
2022-11-25T23:43:11.704Z,58.36
2022-11-25T23:45:19.705Z,58.26
2022-11-25T23:47:24.665Z,57.67
2022-11-25T23:49:44.266Z,58.27
2022-11-25T23:51:46.590Z,58.25
2022-11-25T23:53:49.205Z,58.33
2022-11-25T23:55:52.012Z,57.95
2022-11-25T23:57:54.579Z,58.41
2022-11-25T23:59:56.551Z,58.64
